sensor_id;sensor_type;location;lat;lon;timestamp;P1;durP1;ratioP1;P2;durP2;ratioP2
33495;SDS011;19836;55.812;37.560;2022-12-15T00:02:15;8.85;;;4.90;;
33495;SDS011;19836;55.812;37.560;2022-12-15T00:04:59;5.75;;;4.38;;
33495;SDS011;19836;55.812;37.560;2022-12-15T00:07:44;3.17;;;2.17;;
33495;SDS011;19836;55.812;37.560;2022-12-15T00:10:28;9.52;;;4.88;;
33495;SDS011;19836;55.812;37.560;2022-12-15T00:13:12;7.88;;;5.25;;
33495;SDS011;19836;55.812;37.560;2022-12-15T00:15:57;7.13;;;4.38;;
33495;SDS011;19836;55.812;37.560;2022-12-15T00:18:41;8.20;;;5.07;;
33495;SDS011;19836;55.812;37.560;2022-12-15T00:21:25;11.63;;;6.03;;
33495;SDS011;19836;55.812;37.560;2022-12-15T00:24:10;8.63;;;5.25;;
33495;SDS011;19836;55.812;37.560;2022-12-15T00:26:54;9.40;;;5.93;;
33495;SDS011;19836;55.812;37.560;2022-12-15T00:29:38;7.05;;;4.90;;
33495;SDS011;19836;55.812;37.560;2022-12-15T00:32:22;8.98;;;6.15;;
33495;SDS011;19836;55.812;37.560;2022-12-15T00:35:07;8.45;;;5.68;;
33495;SDS011;19836;55.812;37.560;2022-12-15T00:37:51;11.68;;;6.80;;
33495;SDS011;19836;55.812;37.560;2022-12-15T00:40:36;9.57;;;6.10;;
33495;SDS011;19836;55.812;37.560;2022-12-15T00:43:02;9.75;;;5.25;;
33495;SDS011;19836;55.812;37.560;2022-12-15T00:45:28;8.90;;;7.00;;
33495;SDS011;19836;55.812;37.560;2022-12-15T00:48:12;12.15;;;6.85;;
33495;SDS011;19836;55.812;37.560;2022-12-15T00:50:38;10.98;;;7.53;;
33495;SDS011;19836;55.812;37.560;2022-12-15T00:53:20;8.30;;;5.85;;
33495;SDS011;19836;55.812;37.560;2022-12-15T00:56:05;8.10;;;5.57;;
33495;SDS011;19836;55.812;37.560;2022-12-15T00:58:49;7.55;;;5.28;;
33495;SDS011;19836;55.812;37.560;2022-12-15T01:01:35;8.50;;;5.57;;
33495;SDS011;19836;55.812;37.560;2022-12-15T01:04:19;7.22;;;4.85;;
33495;SDS011;19836;55.812;37.560;2022-12-15T01:07:03;6.95;;;4.82;;
33495;SDS011;19836;55.812;37.560;2022-12-15T01:09:47;7.13;;;5.03;;
33495;SDS011;19836;55.812;37.560;2022-12-15T01:12:32;8.13;;;5.40;;
33495;SDS011;19836;55.812;37.560;2022-12-15T01:15:16;4.78;;;4.03;;
33495;SDS011;19836;55.812;37.560;2022-12-15T01:18:02;8.20;;;5.72;;
33495;SDS011;19836;55.812;37.560;2022-12-15T01:20:55;8.32;;;5.10;;
33495;SDS011;19836;55.812;37.560;2022-12-15T01:23:22;4.90;;;3.47;;
33495;SDS011;19836;55.812;37.560;2022-12-15T01:25:51;5.90;;;4.82;;
33495;SDS011;19836;55.812;37.560;2022-12-15T01:28:18;8.93;;;5.47;;
33495;SDS011;19836;55.812;37.560;2022-12-15T01:30:45;6.70;;;5.38;;
33495;SDS011;19836;55.812;37.560;2022-12-15T01:33:11;7.32;;;5.03;;
33495;SDS011;19836;55.812;37.560;2022-12-15T01:35:37;8.68;;;5.72;;
33495;SDS011;19836;55.812;37.560;2022-12-15T01:38:03;7.72;;;5.22;;
33495;SDS011;19836;55.812;37.560;2022-12-15T01:40:29;8.48;;;5.32;;
33495;SDS011;19836;55.812;37.560;2022-12-15T01:43:11;7.82;;;5.22;;
33495;SDS011;19836;55.812;37.560;2022-12-15T01:45:50;7.93;;;5.50;;
33495;SDS011;19836;55.812;37.560;2022-12-15T01:48:17;8.23;;;5.28;;
33495;SDS011;19836;55.812;37.560;2022-12-15T01:51:30;8.18;;;5.38;;
33495;SDS011;19836;55.812;37.560;2022-12-15T01:53:44;7.53;;;5.80;;
33495;SDS011;19836;55.812;37.560;2022-12-15T01:56:20;7.03;;;5.13;;
33495;SDS011;19836;55.812;37.560;2022-12-15T01:58:48;8.70;;;5.00;;
33495;SDS011;19836;55.812;37.560;2022-12-15T02:01:18;7.47;;;5.47;;
33495;SDS011;19836;55.812;37.560;2022-12-15T02:03:44;7.20;;;5.65;;
33495;SDS011;19836;55.812;37.560;2022-12-15T02:06:12;9.25;;;6.53;;
33495;SDS011;19836;55.812;37.560;2022-12-15T02:08:39;6.60;;;4.90;;
33495;SDS011;19836;55.812;37.560;2022-12-15T02:14:02;9.20;;;6.50;;
33495;SDS011;19836;55.812;37.560;2022-12-15T02:32:38;9.63;;;6.22;;
33495;SDS011;19836;55.812;37.560;2022-12-15T02:35:28;10.82;;;6.72;;
33495;SDS011;19836;55.812;37.560;2022-12-15T02:37:55;7.05;;;5.07;;
33495;SDS011;19836;55.812;37.560;2022-12-15T02:40:21;8.88;;;5.82;;
33495;SDS011;19836;55.812;37.560;2022-12-15T02:42:48;11.10;;;6.00;;
33495;SDS011;19836;55.812;37.560;2022-12-15T02:45:24;10.32;;;5.85;;
33495;SDS011;19836;55.812;37.560;2022-12-15T02:48:09;8.82;;;6.00;;
33495;SDS011;19836;55.812;37.560;2022-12-15T02:59:08;9.23;;;6.82;;
33495;SDS011;19836;55.812;37.560;2022-12-15T03:01:42;11.95;;;6.15;;
33495;SDS011;19836;55.812;37.560;2022-12-15T03:04:21;7.93;;;5.80;;
33495;SDS011;19836;55.812;37.560;2022-12-15T03:06:57;7.70;;;5.10;;
33495;SDS011;19836;55.812;37.560;2022-12-15T03:09:23;6.72;;;4.70;;
33495;SDS011;19836;55.812;37.560;2022-12-15T03:11:49;10.02;;;6.60;;
33495;SDS011;19836;55.812;37.560;2022-12-15T03:14:15;6.93;;;4.65;;
33495;SDS011;19836;55.812;37.560;2022-12-15T03:16:41;4.35;;;2.70;;
33495;SDS011;19836;55.812;37.560;2022-12-15T03:19:07;7.32;;;4.82;;
33495;SDS011;19836;55.812;37.560;2022-12-15T03:21:32;9.02;;;6.03;;
33495;SDS011;19836;55.812;37.560;2022-12-15T03:23:58;9.77;;;6.00;;
33495;SDS011;19836;55.812;37.560;2022-12-15T03:26:24;8.18;;;5.75;;
33495;SDS011;19836;55.812;37.560;2022-12-15T03:28:50;7.53;;;5.47;;
33495;SDS011;19836;55.812;37.560;2022-12-15T03:31:17;7.28;;;5.28;;
33495;SDS011;19836;55.812;37.560;2022-12-15T03:33:43;8.45;;;5.60;;
33495;SDS011;19836;55.812;37.560;2022-12-15T03:36:08;8.00;;;6.13;;
33495;SDS011;19836;55.812;37.560;2022-12-15T03:38:34;7.32;;;5.13;;
33495;SDS011;19836;55.812;37.560;2022-12-15T03:41:00;10.82;;;5.82;;
33495;SDS011;19836;55.812;37.560;2022-12-15T03:43:26;7.63;;;5.15;;
33495;SDS011;19836;55.812;37.560;2022-12-15T03:45:52;7.50;;;5.65;;
33495;SDS011;19836;55.812;37.560;2022-12-15T03:48:17;9.13;;;6.10;;
33495;SDS011;19836;55.812;37.560;2022-12-15T03:50:43;8.85;;;5.93;;
33495;SDS011;19836;55.812;37.560;2022-12-15T03:53:09;9.32;;;6.25;;
33495;SDS011;19836;55.812;37.560;2022-12-15T03:55:35;7.20;;;5.10;;
33495;SDS011;19836;55.812;37.560;2022-12-15T03:58:01;9.43;;;7.05;;
33495;SDS011;19836;55.812;37.560;2022-12-15T04:00:27;9.00;;;6.03;;
33495;SDS011;19836;55.812;37.560;2022-12-15T04:02:53;8.45;;;5.68;;
33495;SDS011;19836;55.812;37.560;2022-12-15T04:05:23;5.75;;;4.05;;
33495;SDS011;19836;55.812;37.560;2022-12-15T04:07:52;9.15;;;5.63;;
33495;SDS011;19836;55.812;37.560;2022-12-15T04:10:19;8.65;;;6.03;;
33495;SDS011;19836;55.812;37.560;2022-12-15T04:12:45;8.27;;;4.95;;
33495;SDS011;19836;55.812;37.560;2022-12-15T04:15:11;5.35;;;4.03;;
33495;SDS011;19836;55.812;37.560;2022-12-15T04:17:37;8.30;;;5.68;;
33495;SDS011;19836;55.812;37.560;2022-12-15T04:20:04;4.75;;;3.97;;
33495;SDS011;19836;55.812;37.560;2022-12-15T04:22:42;6.88;;;5.50;;
33495;SDS011;19836;55.812;37.560;2022-12-15T04:25:11;8.68;;;5.57;;
33495;SDS011;19836;55.812;37.560;2022-12-15T04:27:57;5.18;;;4.60;;
33495;SDS011;19836;55.812;37.560;2022-12-15T04:30:44;3.75;;;2.38;;
33495;SDS011;19836;55.812;37.560;2022-12-15T04:33:32;4.85;;;4.22;;
33495;SDS011;19836;55.812;37.560;2022-12-15T04:36:17;8.45;;;6.18;;
33495;SDS011;19836;55.812;37.560;2022-12-15T04:39:03;9.52;;;6.55;;
33495;SDS011;19836;55.812;37.560;2022-12-15T04:41:47;8.70;;;5.20;;
33495;SDS011;19836;55.812;37.560;2022-12-15T04:44:32;6.57;;;5.00;;
33495;SDS011;19836;55.812;37.560;2022-12-15T04:47:17;8.73;;;5.65;;
33495;SDS011;19836;55.812;37.560;2022-12-15T04:50:01;8.00;;;5.32;;
33495;SDS011;19836;55.812;37.560;2022-12-15T04:52:46;8.10;;;5.57;;
33495;SDS011;19836;55.812;37.560;2022-12-15T04:55:33;9.85;;;6.13;;
33495;SDS011;19836;55.812;37.560;2022-12-15T04:58:18;6.45;;;4.97;;
33495;SDS011;19836;55.812;37.560;2022-12-15T05:01:03;8.57;;;5.68;;
33495;SDS011;19836;55.812;37.560;2022-12-15T05:03:47;8.10;;;6.10;;
33495;SDS011;19836;55.812;37.560;2022-12-15T05:06:31;7.00;;;5.20;;
33495;SDS011;19836;55.812;37.560;2022-12-15T05:09:15;6.90;;;4.80;;
33495;SDS011;19836;55.812;37.560;2022-12-15T05:12:00;8.95;;;6.63;;
33495;SDS011;19836;55.812;37.560;2022-12-15T05:14:44;14.07;;;6.03;;
33495;SDS011;19836;55.812;37.560;2022-12-15T05:17:29;5.80;;;4.20;;
33495;SDS011;19836;55.812;37.560;2022-12-15T05:20:13;10.68;;;6.05;;
33495;SDS011;19836;55.812;37.560;2022-12-15T05:22:57;7.72;;;5.05;;
33495;SDS011;19836;55.812;37.560;2022-12-15T05:25:42;8.52;;;6.00;;
33495;SDS011;19836;55.812;37.560;2022-12-15T05:28:27;5.85;;;3.72;;
33495;SDS011;19836;55.812;37.560;2022-12-15T05:31:11;9.73;;;6.50;;
33495;SDS011;19836;55.812;37.560;2022-12-15T05:33:56;9.63;;;6.13;;
33495;SDS011;19836;55.812;37.560;2022-12-15T05:36:23;8.80;;;6.20;;
33495;SDS011;19836;55.812;37.560;2022-12-15T05:38:50;10.02;;;6.65;;
33495;SDS011;19836;55.812;37.560;2022-12-15T05:41:17;8.88;;;6.22;;
33495;SDS011;19836;55.812;37.560;2022-12-15T05:43:44;8.48;;;5.75;;
33495;SDS011;19836;55.812;37.560;2022-12-15T05:46:10;10.02;;;5.93;;
33495;SDS011;19836;55.812;37.560;2022-12-15T05:48:37;8.75;;;5.93;;
33495;SDS011;19836;55.812;37.560;2022-12-15T05:51:06;8.38;;;5.47;;
33495;SDS011;19836;55.812;37.560;2022-12-15T05:53:35;10.63;;;5.88;;
33495;SDS011;19836;55.812;37.560;2022-12-15T05:56:03;8.48;;;5.38;;
33495;SDS011;19836;55.812;37.560;2022-12-15T05:58:31;8.13;;;5.63;;
33495;SDS011;19836;55.812;37.560;2022-12-15T06:03:30;8.35;;;6.00;;
33495;SDS011;19836;55.812;37.560;2022-12-15T06:05:56;9.73;;;5.50;;
33495;SDS011;19836;55.812;37.560;2022-12-15T06:08:22;9.02;;;5.60;;
33495;SDS011;19836;55.812;37.560;2022-12-15T06:10:54;11.43;;;6.65;;
33495;SDS011;19836;55.812;37.560;2022-12-15T06:13:24;5.80;;;4.50;;
33495;SDS011;19836;55.812;37.560;2022-12-15T06:15:55;8.00;;;6.00;;
33495;SDS011;19836;55.812;37.560;2022-12-15T06:18:30;6.90;;;4.60;;
33495;SDS011;19836;55.812;37.560;2022-12-15T06:21:02;9.00;;;5.72;;
33495;SDS011;19836;55.812;37.560;2022-12-15T06:25:54;6.75;;;3.97;;
33495;SDS011;19836;55.812;37.560;2022-12-15T06:28:21;8.98;;;6.10;;
33495;SDS011;19836;55.812;37.560;2022-12-15T06:30:51;9.07;;;5.70;;
33495;SDS011;19836;55.812;37.560;2022-12-15T06:33:21;11.20;;;6.32;;
33495;SDS011;19836;55.812;37.560;2022-12-15T06:35:47;9.43;;;6.27;;
33495;SDS011;19836;55.812;37.560;2022-12-15T06:38:14;8.68;;;5.88;;
33495;SDS011;19836;55.812;37.560;2022-12-15T06:40:40;9.13;;;6.18;;
33495;SDS011;19836;55.812;37.560;2022-12-15T06:43:06;5.40;;;3.55;;
33495;SDS011;19836;55.812;37.560;2022-12-15T06:45:33;9.13;;;6.07;;
33495;SDS011;19836;55.812;37.560;2022-12-15T06:47:59;8.95;;;5.45;;
33495;SDS011;19836;55.812;37.560;2022-12-15T06:50:25;11.52;;;6.43;;
33495;SDS011;19836;55.812;37.560;2022-12-15T06:52:51;9.40;;;6.15;;
33495;SDS011;19836;55.812;37.560;2022-12-15T06:55:17;12.65;;;7.93;;
33495;SDS011;19836;55.812;37.560;2022-12-15T06:57:45;9.90;;;6.60;;
33495;SDS011;19836;55.812;37.560;2022-12-15T07:00:12;10.38;;;6.80;;
33495;SDS011;19836;55.812;37.560;2022-12-15T07:02:42;8.75;;;5.45;;
33495;SDS011;19836;55.812;37.560;2022-12-15T07:05:08;12.23;;;6.95;;
33495;SDS011;19836;55.812;37.560;2022-12-15T07:07:34;10.48;;;6.85;;
33495;SDS011;19836;55.812;37.560;2022-12-15T07:10:00;9.38;;;6.65;;
33495;SDS011;19836;55.812;37.560;2022-12-15T07:12:26;7.80;;;4.55;;
33495;SDS011;19836;55.812;37.560;2022-12-15T07:14:51;9.98;;;7.43;;
33495;SDS011;19836;55.812;37.560;2022-12-15T07:17:17;5.55;;;3.22;;
33495;SDS011;19836;55.812;37.560;2022-12-15T07:19:43;8.18;;;5.95;;
33495;SDS011;19836;55.812;37.560;2022-12-15T07:22:09;11.05;;;7.43;;
33495;SDS011;19836;55.812;37.560;2022-12-15T07:24:35;10.50;;;5.80;;
33495;SDS011;19836;55.812;37.560;2022-12-15T07:27:00;9.70;;;6.43;;
33495;SDS011;19836;55.812;37.560;2022-12-15T07:29:26;14.40;;;8.95;;
33495;SDS011;19836;55.812;37.560;2022-12-15T07:31:52;14.30;;;9.32;;
33495;SDS011;19836;55.812;37.560;2022-12-15T07:34:18;15.63;;;9.68;;
33495;SDS011;19836;55.812;37.560;2022-12-15T07:36:44;16.02;;;9.82;;
33495;SDS011;19836;55.812;37.560;2022-12-15T07:39:10;12.85;;;8.57;;
33495;SDS011;19836;55.812;37.560;2022-12-15T07:41:37;14.35;;;8.73;;
33495;SDS011;19836;55.812;37.560;2022-12-15T07:44:04;15.10;;;10.73;;
33495;SDS011;19836;55.812;37.560;2022-12-15T07:46:30;14.40;;;9.75;;
33495;SDS011;19836;55.812;37.560;2022-12-15T07:48:56;14.27;;;9.43;;
33495;SDS011;19836;55.812;37.560;2022-12-15T07:51:22;15.20;;;9.23;;
33495;SDS011;19836;55.812;37.560;2022-12-15T07:53:48;18.30;;;11.57;;
33495;SDS011;19836;55.812;37.560;2022-12-15T07:56:15;15.32;;;10.00;;
33495;SDS011;19836;55.812;37.560;2022-12-15T07:58:41;16.42;;;9.55;;
33495;SDS011;19836;55.812;37.560;2022-12-15T08:01:09;13.93;;;7.93;;
33495;SDS011;19836;55.812;37.560;2022-12-15T08:03:37;9.93;;;6.95;;
33495;SDS011;19836;55.812;37.560;2022-12-15T08:06:04;13.73;;;9.15;;
33495;SDS011;19836;55.812;37.560;2022-12-15T08:08:31;14.55;;;9.25;;
33495;SDS011;19836;55.812;37.560;2022-12-15T08:10:57;14.25;;;8.75;;
33495;SDS011;19836;55.812;37.560;2022-12-15T08:13:23;15.15;;;9.38;;
33495;SDS011;19836;55.812;37.560;2022-12-15T08:15:52;15.73;;;10.48;;
33495;SDS011;19836;55.812;37.560;2022-12-15T08:18:21;17.23;;;10.00;;
33495;SDS011;19836;55.812;37.560;2022-12-15T08:20:47;12.25;;;8.30;;
33495;SDS011;19836;55.812;37.560;2022-12-15T08:23:13;12.60;;;8.85;;
33495;SDS011;19836;55.812;37.560;2022-12-15T08:25:38;11.98;;;6.47;;
33495;SDS011;19836;55.812;37.560;2022-12-15T08:28:04;12.02;;;8.00;;
33495;SDS011;19836;55.812;37.560;2022-12-15T08:30:31;11.40;;;7.93;;
33495;SDS011;19836;55.812;37.560;2022-12-15T08:32:58;13.43;;;8.52;;
33495;SDS011;19836;55.812;37.560;2022-12-15T08:35:24;11.55;;;7.80;;
33495;SDS011;19836;55.812;37.560;2022-12-15T08:37:50;12.80;;;8.45;;
33495;SDS011;19836;55.812;37.560;2022-12-15T08:40:16;14.00;;;7.93;;
33495;SDS011;19836;55.812;37.560;2022-12-15T08:42:42;15.20;;;8.60;;
33495;SDS011;19836;55.812;37.560;2022-12-15T08:45:08;10.93;;;6.85;;
33495;SDS011;19836;55.812;37.560;2022-12-15T08:47:35;13.15;;;8.98;;
33495;SDS011;19836;55.812;37.560;2022-12-15T08:50:01;15.88;;;8.75;;
33495;SDS011;19836;55.812;37.560;2022-12-15T08:52:27;12.82;;;7.20;;
33495;SDS011;19836;55.812;37.560;2022-12-15T08:54:53;13.32;;;8.40;;
33495;SDS011;19836;55.812;37.560;2022-12-15T08:57:19;11.10;;;7.85;;
33495;SDS011;19836;55.812;37.560;2022-12-15T08:59:45;12.82;;;8.02;;
33495;SDS011;19836;55.812;37.560;2022-12-15T09:02:11;12.18;;;6.97;;
33495;SDS011;19836;55.812;37.560;2022-12-15T09:04:37;8.80;;;6.72;;
33495;SDS011;19836;55.812;37.560;2022-12-15T09:07:03;6.18;;;4.22;;
33495;SDS011;19836;55.812;37.560;2022-12-15T09:09:29;10.40;;;6.53;;
33495;SDS011;19836;55.812;37.560;2022-12-15T09:11:55;10.23;;;6.75;;
33495;SDS011;19836;55.812;37.560;2022-12-15T09:14:21;10.48;;;6.20;;
33495;SDS011;19836;55.812;37.560;2022-12-15T09:16:47;9.15;;;6.70;;
33495;SDS011;19836;55.812;37.560;2022-12-15T09:19:12;10.63;;;6.65;;
33495;SDS011;19836;55.812;37.560;2022-12-15T09:21:38;9.52;;;6.53;;
33495;SDS011;19836;55.812;37.560;2022-12-15T09:24:10;8.30;;;5.88;;
33495;SDS011;19836;55.812;37.560;2022-12-15T09:26:37;7.60;;;3.28;;
33495;SDS011;19836;55.812;37.560;2022-12-15T09:29:03;12.20;;;6.45;;
33495;SDS011;19836;55.812;37.560;2022-12-15T09:31:30;8.27;;;5.68;;
33495;SDS011;19836;55.812;37.560;2022-12-15T09:33:58;10.95;;;6.15;;
33495;SDS011;19836;55.812;37.560;2022-12-15T09:36:26;10.57;;;6.45;;
33495;SDS011;19836;55.812;37.560;2022-12-15T09:38:52;9.60;;;6.22;;
33495;SDS011;19836;55.812;37.560;2022-12-15T09:41:25;10.00;;;5.70;;
33495;SDS011;19836;55.812;37.560;2022-12-15T09:44:13;9.82;;;5.60;;
33495;SDS011;19836;55.812;37.560;2022-12-15T09:51:56;8.63;;;5.63;;
33495;SDS011;19836;55.812;37.560;2022-12-15T09:54:29;9.73;;;6.10;;
33495;SDS011;19836;55.812;37.560;2022-12-15T09:56:58;9.73;;;6.57;;
33495;SDS011;19836;55.812;37.560;2022-12-15T10:08:07;9.43;;;6.15;;
33495;SDS011;19836;55.812;37.560;2022-12-15T10:11:10;9.20;;;6.40;;
33495;SDS011;19836;55.812;37.560;2022-12-15T10:16:20;8.90;;;6.45;;
33495;SDS011;19836;55.812;37.560;2022-12-15T10:19:10;8.95;;;6.28;;
33495;SDS011;19836;55.812;37.560;2022-12-15T10:21:38;12.57;;;7.07;;
33495;SDS011;19836;55.812;37.560;2022-12-15T10:26:42;10.75;;;5.80;;
33495;SDS011;19836;55.812;37.560;2022-12-15T10:30:03;11.95;;;7.65;;
33495;SDS011;19836;55.812;37.560;2022-12-15T10:34:57;10.43;;;7.35;;
33495;SDS011;19836;55.812;37.560;2022-12-15T10:37:23;10.80;;;6.82;;
33495;SDS011;19836;55.812;37.560;2022-12-15T10:39:49;11.30;;;6.82;;
33495;SDS011;19836;55.812;37.560;2022-12-15T10:42:22;11.85;;;7.60;;
33495;SDS011;19836;55.812;37.560;2022-12-15T10:44:54;11.85;;;7.25;;
33495;SDS011;19836;55.812;37.560;2022-12-15T10:47:26;11.25;;;7.50;;
33495;SDS011;19836;55.812;37.560;2022-12-15T10:49:54;10.68;;;7.32;;
33495;SDS011;19836;55.812;37.560;2022-12-15T10:52:35;10.93;;;6.60;;
33495;SDS011;19836;55.812;37.560;2022-12-15T10:55:09;10.85;;;6.55;;
33495;SDS011;19836;55.812;37.560;2022-12-15T10:58:03;11.02;;;7.28;;
33495;SDS011;19836;55.812;37.560;2022-12-15T11:00:40;11.82;;;7.30;;
33495;SDS011;19836;55.812;37.560;2022-12-15T11:03:20;11.27;;;7.18;;
33495;SDS011;19836;55.812;37.560;2022-12-15T11:05:51;15.48;;;8.38;;
33495;SDS011;19836;55.812;37.560;2022-12-15T11:08:19;12.50;;;7.78;;
33495;SDS011;19836;55.812;37.560;2022-12-15T11:10:54;10.75;;;7.07;;
33495;SDS011;19836;55.812;37.560;2022-12-15T11:13:40;11.30;;;7.28;;
33495;SDS011;19836;55.812;37.560;2022-12-15T11:16:13;10.07;;;7.15;;
33495;SDS011;19836;55.812;37.560;2022-12-15T11:18:44;10.77;;;7.25;;
33495;SDS011;19836;55.812;37.560;2022-12-15T11:24:27;10.00;;;7.03;;
33495;SDS011;19836;55.812;37.560;2022-12-15T11:26:55;12.60;;;7.68;;
33495;SDS011;19836;55.812;37.560;2022-12-15T11:32:25;14.18;;;7.78;;
33495;SDS011;19836;55.812;37.560;2022-12-15T11:35:05;13.02;;;7.60;;
33495;SDS011;19836;55.812;37.560;2022-12-15T11:40:22;13.18;;;8.60;;
33495;SDS011;19836;55.812;37.560;2022-12-15T11:43:07;11.18;;;7.50;;
33495;SDS011;19836;55.812;37.560;2022-12-15T11:51:43;12.07;;;7.68;;
33495;SDS011;19836;55.812;37.560;2022-12-15T11:57:13;9.65;;;5.82;;
33495;SDS011;19836;55.812;37.560;2022-12-15T11:59:51;14.77;;;8.60;;
33495;SDS011;19836;55.812;37.560;2022-12-15T12:02:45;11.98;;;7.40;;
33495;SDS011;19836;55.812;37.560;2022-12-15T12:10:40;10.63;;;7.07;;
33495;SDS011;19836;55.812;37.560;2022-12-15T12:15:56;10.82;;;6.75;;
33495;SDS011;19836;55.812;37.560;2022-12-15T12:18:26;10.25;;;6.25;;
33495;SDS011;19836;55.812;37.560;2022-12-15T12:21:15;14.25;;;7.85;;
33495;SDS011;19836;55.812;37.560;2022-12-15T12:23:49;12.73;;;8.07;;
33495;SDS011;19836;55.812;37.560;2022-12-15T12:34:14;13.77;;;8.32;;
33495;SDS011;19836;55.812;37.560;2022-12-15T12:36:47;13.75;;;7.95;;
33495;SDS011;19836;55.812;37.560;2022-12-15T12:39:16;13.40;;;8.75;;
33495;SDS011;19836;55.812;37.560;2022-12-15T12:41:47;12.27;;;8.13;;
33495;SDS011;19836;55.812;37.560;2022-12-15T12:47:04;14.95;;;7.68;;
33495;SDS011;19836;55.812;37.560;2022-12-15T12:49:44;14.13;;;8.82;;
33495;SDS011;19836;55.812;37.560;2022-12-15T12:52:34;16.05;;;9.20;;
33495;SDS011;19836;55.812;37.560;2022-12-15T12:55:03;13.50;;;8.38;;
33495;SDS011;19836;55.812;37.560;2022-12-15T12:57:34;13.18;;;6.97;;
33495;SDS011;19836;55.812;37.560;2022-12-15T13:00:13;12.30;;;7.45;;
33495;SDS011;19836;55.812;37.560;2022-12-15T13:02:54;13.55;;;8.27;;
33495;SDS011;19836;55.812;37.560;2022-12-15T13:05:28;11.82;;;7.38;;
33495;SDS011;19836;55.812;37.560;2022-12-15T13:10:31;15.40;;;9.38;;
33495;SDS011;19836;55.812;37.560;2022-12-15T13:15:43;16.73;;;9.35;;
33495;SDS011;19836;55.812;37.560;2022-12-15T13:18:22;14.23;;;8.88;;
33495;SDS011;19836;55.812;37.560;2022-12-15T13:20:52;13.77;;;8.23;;
33495;SDS011;19836;55.812;37.560;2022-12-15T13:34:33;14.55;;;9.55;;
33495;SDS011;19836;55.812;37.560;2022-12-15T13:44:34;17.83;;;9.80;;
33495;SDS011;19836;55.812;37.560;2022-12-15T13:50:09;14.43;;;8.95;;
33495;SDS011;19836;55.812;37.560;2022-12-15T13:55:10;11.75;;;7.70;;
33495;SDS011;19836;55.812;37.560;2022-12-15T13:57:44;15.07;;;7.43;;
33495;SDS011;19836;55.812;37.560;2022-12-15T14:00:27;12.02;;;7.97;;
33495;SDS011;19836;55.812;37.560;2022-12-15T14:03:03;15.50;;;7.85;;
33495;SDS011;19836;55.812;37.560;2022-12-15T14:05:36;15.80;;;9.25;;
33495;SDS011;19836;55.812;37.560;2022-12-15T14:08:06;17.50;;;7.82;;
33495;SDS011;19836;55.812;37.560;2022-12-15T14:15:46;13.15;;;7.88;;
33495;SDS011;19836;55.812;37.560;2022-12-15T14:18:22;15.55;;;8.15;;
33495;SDS011;19836;55.812;37.560;2022-12-15T14:20:50;15.00;;;9.07;;
33495;SDS011;19836;55.812;37.560;2022-12-15T14:23:27;16.15;;;7.53;;
33495;SDS011;19836;55.812;37.560;2022-12-15T14:26:05;17.10;;;8.50;;
33495;SDS011;19836;55.812;37.560;2022-12-15T14:28:33;14.98;;;8.80;;
33495;SDS011;19836;55.812;37.560;2022-12-15T14:31:06;14.23;;;9.15;;
33495;SDS011;19836;55.812;37.560;2022-12-15T14:33:39;11.45;;;8.50;;
33495;SDS011;19836;55.812;37.560;2022-12-15T14:36:09;13.93;;;7.83;;
33495;SDS011;19836;55.812;37.560;2022-12-15T14:38:42;12.27;;;7.30;;
33495;SDS011;19836;55.812;37.560;2022-12-15T14:41:27;15.38;;;8.75;;
33495;SDS011;19836;55.812;37.560;2022-12-15T14:44:00;11.68;;;7.65;;
33495;SDS011;19836;55.812;37.560;2022-12-15T14:46:29;11.38;;;7.47;;
33495;SDS011;19836;55.812;37.560;2022-12-15T14:48:58;14.18;;;7.93;;
33495;SDS011;19836;55.812;37.560;2022-12-15T14:51:28;14.98;;;7.95;;
33495;SDS011;19836;55.812;37.560;2022-12-15T14:53:56;15.98;;;8.65;;
33495;SDS011;19836;55.812;37.560;2022-12-15T14:56:24;17.58;;;8.90;;
33495;SDS011;19836;55.812;37.560;2022-12-15T14:59:01;15.05;;;8.18;;
33495;SDS011;19836;55.812;37.560;2022-12-15T15:01:33;9.93;;;5.35;;
33495;SDS011;19836;55.812;37.560;2022-12-15T15:04:23;13.75;;;7.90;;
33495;SDS011;19836;55.812;37.560;2022-12-15T15:06:57;12.73;;;7.18;;
33495;SDS011;19836;55.812;37.560;2022-12-15T15:09:29;16.20;;;8.50;;
33495;SDS011;19836;55.812;37.560;2022-12-15T15:12:45;13.90;;;7.93;;
33495;SDS011;19836;55.812;37.560;2022-12-15T15:15:16;14.07;;;8.75;;
33495;SDS011;19836;55.812;37.560;2022-12-15T15:17:46;13.75;;;8.60;;
33495;SDS011;19836;55.812;37.560;2022-12-15T15:20:22;11.63;;;7.53;;
33495;SDS011;19836;55.812;37.560;2022-12-15T15:28:11;22.33;;;11.45;;
33495;SDS011;19836;55.812;37.560;2022-12-15T15:30:45;15.93;;;9.20;;
33495;SDS011;19836;55.812;37.560;2022-12-15T15:33:22;15.77;;;9.52;;
33495;SDS011;19836;55.812;37.560;2022-12-15T15:35:52;18.45;;;8.52;;
33495;SDS011;19836;55.812;37.560;2022-12-15T15:38:28;15.27;;;7.38;;
33495;SDS011;19836;55.812;37.560;2022-12-15T15:40:57;15.02;;;8.73;;
33495;SDS011;19836;55.812;37.560;2022-12-15T15:43:25;13.30;;;7.38;;
33495;SDS011;19836;55.812;37.560;2022-12-15T15:45:57;15.55;;;8.80;;
33495;SDS011;19836;55.812;37.560;2022-12-15T15:48:28;15.57;;;8.50;;
33495;SDS011;19836;55.812;37.560;2022-12-15T15:50:57;13.23;;;7.00;;
33495;SDS011;19836;55.812;37.560;2022-12-15T15:53:24;14.45;;;7.85;;
33495;SDS011;19836;55.812;37.560;2022-12-15T15:55:55;10.23;;;6.32;;
33495;SDS011;19836;55.812;37.560;2022-12-15T15:58:21;14.95;;;9.05;;
33495;SDS011;19836;55.812;37.560;2022-12-15T16:00:47;15.93;;;9.13;;
33495;SDS011;19836;55.812;37.560;2022-12-15T16:03:15;14.15;;;8.20;;
33495;SDS011;19836;55.812;37.560;2022-12-15T16:05:41;14.70;;;8.05;;
33495;SDS011;19836;55.812;37.560;2022-12-15T16:08:18;14.00;;;7.50;;
33495;SDS011;19836;55.812;37.560;2022-12-15T16:10:48;10.90;;;6.90;;
33495;SDS011;19836;55.812;37.560;2022-12-15T16:13:16;15.85;;;8.45;;
33495;SDS011;19836;55.812;37.560;2022-12-15T16:15:43;16.52;;;9.35;;
33495;SDS011;19836;55.812;37.560;2022-12-15T16:18:09;15.50;;;7.95;;
33495;SDS011;19836;55.812;37.560;2022-12-15T16:20:35;17.05;;;8.68;;
33495;SDS011;19836;55.812;37.560;2022-12-15T16:23:14;15.27;;;8.57;;
33495;SDS011;19836;55.812;37.560;2022-12-15T16:25:43;14.48;;;8.52;;
33495;SDS011;19836;55.812;37.560;2022-12-15T16:28:11;15.73;;;8.63;;
33495;SDS011;19836;55.812;37.560;2022-12-15T16:30:39;10.75;;;6.20;;
33495;SDS011;19836;55.812;37.560;2022-12-15T16:33:06;16.55;;;6.85;;
33495;SDS011;19836;55.812;37.560;2022-12-15T16:35:32;12.25;;;6.88;;
33495;SDS011;19836;55.812;37.560;2022-12-15T16:37:58;16.90;;;8.50;;
33495;SDS011;19836;55.812;37.560;2022-12-15T16:40:24;13.02;;;8.45;;
33495;SDS011;19836;55.812;37.560;2022-12-15T16:42:55;15.18;;;8.73;;
33495;SDS011;19836;55.812;37.560;2022-12-15T16:45:24;14.48;;;8.00;;
33495;SDS011;19836;55.812;37.560;2022-12-15T16:47:51;12.55;;;7.57;;
33495;SDS011;19836;55.812;37.560;2022-12-15T16:50:19;17.38;;;9.70;;
33495;SDS011;19836;55.812;37.560;2022-12-15T16:52:49;14.07;;;8.90;;
33495;SDS011;19836;55.812;37.560;2022-12-15T16:55:20;18.02;;;9.55;;
33495;SDS011;19836;55.812;37.560;2022-12-15T17:00:16;15.88;;;8.15;;
33495;SDS011;19836;55.812;37.560;2022-12-15T17:02:44;14.95;;;7.47;;
33495;SDS011;19836;55.812;37.560;2022-12-15T17:05:10;13.57;;;7.70;;
33495;SDS011;19836;55.812;37.560;2022-12-15T17:07:36;14.25;;;7.60;;
33495;SDS011;19836;55.812;37.560;2022-12-15T17:10:03;19.15;;;9.75;;